MOOI WEER BOXTEL

Weerstation in Boxtel

Actuele weerinformatie en voorspellingen


Onweer radar Meer informatie blitzortung!


Regen radar Meer informatie rain snow radar


Meer informatie

Template documentation
and downloads

Weblog Hans on Experience

Profiel Hans Mestrum



Het weer levert geen direct gevaar op.    Er zijn geen waarschuwingen afgegeven.

METAR rapporten vliegvelden

   
EHEH - Eindhoven
Gewijzigd: 17-10-2018 14:25
Gedeeltelijk bewolkt  
Gedeeltelijk bewolkt  
   Wind: varieert 3.7 km/h
Wind: varieert 3.7 km/h
Temperatuur: 20°C
Dauwpunt: 13°C
Vochtigheid: 64%
Barometer: 1019 hPa
Bewolking: Gedeeltelijk bewolkt
Zicht: meer dan 10 km
Bewolking: Gedeeltelijk bewolkt 37000 ft
EHEH 171225Z AUTO VRB02KT 9999 SCT370 20/13 Q1019 BLU 35003KT 9999 FEW025 SCT250
EHVK - Volkel
Gewijzigd: 17-10-2018 14:25
Bewolking  
Bewolking  
   Wind: varieert 5.6 km/h
Wind: varieert 5.6 km/h
Temperatuur: 20°C
Dauwpunt: 14°C
Vochtigheid: 69%
Barometer: 1018 hPa
Bewolking: Bewolking
Zicht: meer dan 10 km
Bewolking: Bewolking 37000 ft
EHVK 171225Z AUTO VRB03KT 9999 OVC370 20/14 Q1018 BLU 33003KT 9000 NSC
EBAW - Antwerpen
Gewijzigd: 17-10-2018 14:20
Gedeeltelijk bewolkt  
Gedeeltelijk bewolkt  
   Wind: NW 7.4 km/h
Wind: NW 7.4 km/h
Temperatuur: 20°C
Dauwpunt: 12°C
Vochtigheid: 60%
Barometer: 1019 hPa
Bewolking: Gedeeltelijk bewolkt
Zicht: meer dan 10 km
Bewolking: Gedeeltelijk bewolkt 2500 ft
EBAW 171220Z 31004KT 270V350 9999 SCT025 20/12 Q1019 NOSIG
EHBK - Maastricht
Gewijzigd: 17-10-2018 14:25
Gedeeltelijk bewolkt  
Gedeeltelijk bewolkt  
   Wind: Noorden 1.9 km/h
Wind: Noorden 1.9 km/h
Temperatuur: 20°C
Dauwpunt: 12°C
Vochtigheid: 60%
Barometer: 1019 hPa
Bewolking: Gedeeltelijk bewolkt
Zicht: 9 km
Bewolking: Gedeeltelijk bewolkt
EHBK 171225Z AUTO 35001KT 9000 NSC 20/12 Q1019 NOSIG
ELLX - Luxemburg
Gewijzigd: 17-10-2018 14:20
Helder  
Helder  
   Wind: NO 9.3 km/h
Wind: NO 9.3 km/h
Temperatuur: 21°C
Dauwpunt: 8°C
Vochtigheid: 43%
Barometer: 1019 hPa
Zicht: meer dan 10 km
Bewolking: Helder
ELLX 171220Z 04005KT 350V080 CAVOK 21/08 Q1019 NOSIG
 

Script ontwikkeld door  Saratoga-weather.org Aangepast voor de template door  Weerstation Leuven

U vindt ons ook hier:

Het Weer Aktueel

UK Metoffice

European Weather Network

Weather Underground

AWEKAS

Citizen Weather Observer Program (CWOP)

HAMweather, WeatherForYou, PWS Weather

Apparatuur in gebruik:

Weerstation
Davis Vue ISS

Weerprogramma
Meteobridge

Weercomputer
Asus WL -330N3G

Webleverancier
Weerhuisje.nl

Davis Vue ISS

Meteobridge

Asus WL -330N3G

Weerhuisje.nl